createdAt,value
2022-10-19T00:01:59.401Z,1.10
2022-10-19T00:04:30.242Z,1.02
2022-10-19T00:07:00.628Z,0.88
2022-10-19T00:12:00.338Z,1.48
2022-10-19T00:14:30.653Z,0.45
2022-10-19T00:19:30.720Z,0.40
2022-10-19T00:22:01.407Z,0.57
2022-10-19T00:24:35.479Z,0.57
2022-10-19T00:27:09.124Z,0.60
2022-10-19T00:29:40.597Z,0.50
2022-10-19T00:32:10.730Z,0.47
2022-10-19T00:34:40.681Z,0.40
2022-10-19T00:37:10.945Z,0.80
2022-10-19T00:42:13.653Z,0.50
2022-10-19T00:44:46.906Z,0.50
2022-10-19T00:47:18.119Z,0.93
2022-10-19T00:49:48.917Z,1.35
2022-10-19T00:52:23.505Z,1.17
2022-10-19T00:54:55.531Z,0.73
2022-10-19T00:57:29.868Z,0.88
2022-10-19T01:00:02.527Z,0.40
2022-10-19T01:02:33.191Z,0.32
2022-10-19T01:05:04.261Z,0.52
2022-10-19T01:07:34.708Z,0.30
2022-10-19T01:10:06.321Z,0.50
2022-10-19T01:13:04.286Z,0.40
2022-10-19T01:15:48.563Z,0.68
2022-10-19T01:18:37.018Z,0.50
2022-10-19T01:21:24.001Z,0.68
2022-10-19T01:24:20.271Z,0.85
2022-10-19T01:27:23.508Z,0.70
2022-10-19T01:30:15.380Z,0.65
2022-10-19T01:32:57.585Z,1.05
2022-10-19T01:35:59.650Z,0.70
2022-10-19T01:38:39.101Z,0.73
2022-10-19T01:41:35.952Z,0.82
2022-10-19T01:44:06.157Z,0.70
2022-10-19T01:46:45.053Z,1.27
2022-10-19T01:49:46.449Z,0.90
2022-10-19T01:54:53.845Z,0.63
2022-10-19T01:57:33.968Z,0.98
2022-10-19T02:00:08.631Z,0.40
2022-10-19T02:02:51.934Z,0.57
2022-10-19T02:05:25.937Z,0.30
2022-10-19T02:08:01.978Z,0.20
2022-10-19T02:10:35.200Z,0.43
2022-10-19T02:13:06.343Z,0.43
2022-10-19T02:15:41.818Z,0.70
2022-10-19T02:18:14.964Z,0.70
2022-10-19T02:20:45.305Z,0.73
2022-10-19T02:23:19.030Z,1.02
2022-10-19T02:25:49.752Z,0.90
2022-10-19T02:28:20.654Z,0.88
2022-10-19T02:30:51.208Z,1.00
2022-10-19T02:33:21.741Z,0.63
2022-10-19T02:35:52.167Z,0.85
2022-10-19T02:38:25.241Z,0.80
2022-10-19T02:41:19.617Z,0.75
2022-10-19T02:43:53.170Z,0.47
2022-10-19T02:46:33.387Z,0.82
2022-10-19T02:49:05.687Z,0.70
2022-10-19T02:51:57.144Z,0.70
2022-10-19T02:54:27.514Z,0.47
2022-10-19T02:56:58.022Z,0.50
2022-10-19T02:59:28.542Z,0.45
2022-10-19T03:01:58.708Z,0.45
2022-10-19T03:04:28.608Z,0.60
2022-10-19T03:06:58.766Z,0.47
2022-10-19T03:09:29.432Z,0.60
2022-10-19T03:11:59.643Z,0.55
2022-10-19T03:14:29.863Z,0.45
2022-10-19T03:17:00.078Z,0.50
2022-10-19T03:19:30.304Z,0.52
2022-10-19T03:22:00.478Z,0.65
2022-10-19T03:24:32.514Z,0.50
2022-10-19T03:27:02.809Z,0.70
2022-10-19T03:29:33.456Z,0.60
2022-10-19T03:32:03.659Z,0.88
2022-10-19T03:34:34.001Z,0.40
2022-10-19T03:37:04.259Z,0.60
2022-10-19T03:39:34.365Z,0.70
2022-10-19T03:44:34.307Z,0.50
2022-10-19T03:47:04.532Z,0.50
2022-10-19T03:49:36.819Z,0.60
2022-10-19T03:52:11.243Z,1.15
2022-10-19T03:54:41.524Z,0.95
2022-10-19T03:57:11.878Z,0.88
2022-10-19T04:02:11.468Z,0.85
2022-10-19T04:04:41.589Z,0.50
2022-10-19T04:07:11.728Z,0.77
2022-10-19T04:09:41.878Z,0.40
2022-10-19T04:12:12.074Z,0.80
2022-10-19T04:14:56.193Z,1.00
2022-10-19T04:17:27.986Z,0.90
2022-10-19T04:22:27.370Z,0.70
2022-10-19T04:24:57.667Z,0.40
2022-10-19T04:29:57.161Z,0.50
2022-10-19T04:32:27.314Z,0.73
2022-10-19T04:34:57.590Z,0.68
2022-10-19T04:37:27.762Z,0.93
2022-10-19T04:39:57.924Z,0.55
2022-10-19T04:42:28.115Z,0.57
2022-10-19T04:44:58.360Z,0.65
2022-10-19T04:47:30.216Z,0.90
2022-10-19T04:50:00.567Z,0.93
2022-10-19T04:55:00.430Z,1.17
2022-10-19T04:57:31.435Z,0.88
2022-10-19T05:00:02.003Z,0.90
2022-10-19T05:05:01.518Z,0.93
2022-10-19T05:07:31.982Z,0.82
2022-10-19T05:10:02.449Z,0.68
2022-10-19T05:15:02.176Z,1.02
2022-10-19T05:17:35.563Z,0.98
2022-10-19T05:20:06.254Z,1.35
2022-10-19T05:22:36.450Z,1.92
2022-10-19T05:25:08.142Z,1.00
2022-10-19T05:27:38.588Z,1.73
2022-10-19T05:30:09.687Z,1.77
2022-10-19T05:32:40.271Z,1.38
2022-10-19T05:35:10.668Z,1.23
2022-10-19T05:37:40.934Z,1.88
2022-10-19T05:40:12.007Z,1.80
2022-10-19T05:42:42.288Z,1.75
2022-10-19T05:45:12.813Z,1.35
2022-10-19T05:47:43.088Z,1.13
2022-10-19T05:50:13.299Z,1.17
2022-10-19T05:52:43.448Z,1.27
2022-10-19T05:57:43.329Z,1.48
2022-10-19T06:00:14.088Z,1.55
2022-10-19T06:02:44.959Z,1.50
2022-10-19T06:05:15.269Z,1.08
2022-10-19T06:07:45.491Z,1.42
2022-10-19T06:10:15.745Z,1.30
2022-10-19T06:12:45.987Z,1.25
2022-10-19T06:15:16.265Z,0.88
2022-10-19T06:20:16.276Z,0.98
2022-10-19T06:25:18.110Z,0.85
2022-10-19T06:27:50.650Z,1.00
2022-10-19T06:30:20.853Z,0.63
2022-10-19T06:32:51.869Z,0.70
2022-10-19T06:35:22.553Z,0.70
2022-10-19T06:37:53.126Z,1.20
2022-10-19T06:40:23.284Z,1.63
2022-10-19T06:42:53.707Z,0.95
2022-10-19T06:47:53.424Z,1.40
2022-10-19T06:50:24.474Z,1.75
2022-10-19T06:52:54.712Z,1.42
2022-10-19T06:55:24.798Z,1.80
2022-10-19T06:57:54.742Z,1.17
2022-10-19T07:00:24.626Z,1.67
2022-10-19T07:02:54.603Z,1.63
2022-10-19T07:05:24.924Z,1.17
2022-10-19T07:07:56.635Z,1.00
2022-10-19T07:12:58.373Z,1.10
2022-10-19T07:15:28.884Z,0.95
2022-10-19T07:17:59.115Z,1.05
2022-10-19T07:20:29.309Z,1.23
2022-10-19T07:22:59.579Z,0.80
2022-10-19T07:25:31.278Z,1.10
2022-10-19T07:28:01.729Z,0.82
2022-10-19T07:33:01.696Z,0.57
2022-10-19T07:35:31.994Z,0.73
2022-10-19T07:38:02.209Z,0.65
2022-10-19T07:40:32.396Z,0.50
2022-10-19T07:43:02.796Z,0.75
2022-10-19T07:48:03.905Z,0.32
2022-10-19T07:53:06.573Z,0.95
2022-10-19T07:55:36.970Z,0.40
2022-10-19T07:58:07.202Z,0.60
2022-10-19T08:00:37.375Z,0.40
2022-10-19T08:06:02.463Z,0.40
2022-10-19T08:08:33.030Z,0.52
2022-10-19T08:11:17.169Z,0.28
2022-10-19T08:13:48.453Z,0.40
2022-10-19T08:16:45.829Z,0.22
2022-10-19T08:19:17.810Z,0.85
2022-10-19T08:21:48.822Z,0.38
2022-10-19T08:24:20.456Z,0.57
2022-10-19T08:26:52.511Z,0.22
2022-10-19T08:29:25.498Z,0.50
2022-10-19T08:31:57.920Z,0.40
2022-10-19T08:34:28.700Z,0.40
2022-10-19T08:36:58.820Z,0.30
2022-10-19T08:39:29.003Z,0.20
2022-10-19T08:44:36.654Z,0.45
2022-10-19T08:47:36.819Z,0.43
2022-10-19T08:50:27.082Z,0.40
2022-10-19T08:53:09.364Z,0.30
2022-10-19T08:56:07.145Z,0.50
2022-10-19T08:58:55.931Z,0.55
2022-10-19T09:01:48.217Z,0.40
2022-10-19T09:04:33.147Z,0.57
2022-10-19T09:07:09.377Z,0.90
2022-10-19T09:12:46.959Z,0.52
2022-10-19T09:15:22.109Z,0.32
2022-10-19T09:17:52.431Z,0.25
2022-10-19T09:23:29.295Z,0.82
2022-10-19T09:26:00.089Z,0.30
2022-10-19T09:28:54.752Z,0.43
2022-10-19T09:31:39.582Z,0.40
2022-10-19T09:34:23.524Z,0.55
2022-10-19T09:36:58.915Z,0.60
2022-10-19T09:39:32.018Z,0.52
2022-10-19T09:42:07.557Z,0.40
2022-10-19T09:44:38.340Z,0.40
2022-10-19T09:47:26.933Z,0.25
2022-10-19T09:50:17.165Z,0.43
2022-10-19T09:52:52.840Z,0.57
2022-10-19T09:55:37.644Z,0.43
2022-10-19T09:58:19.152Z,0.30
2022-10-19T10:00:57.561Z,0.40
2022-10-19T10:03:44.638Z,0.60
2022-10-19T10:06:18.015Z,0.47
2022-10-19T10:08:59.210Z,0.85
2022-10-19T10:11:40.343Z,0.85
2022-10-19T10:14:41.187Z,0.70
2022-10-19T10:17:24.711Z,1.10
2022-10-19T10:20:08.120Z,1.08
2022-10-19T10:22:39.289Z,1.20
2022-10-19T10:25:19.933Z,0.90
2022-10-19T10:28:24.911Z,1.30
2022-10-19T10:31:07.167Z,0.93
2022-10-19T10:33:44.580Z,1.50
2022-10-19T10:36:16.915Z,1.23
2022-10-19T10:38:52.367Z,1.70
2022-10-19T10:41:25.170Z,1.48
2022-10-19T10:44:05.603Z,1.60
2022-10-19T10:46:51.157Z,1.00
2022-10-19T10:49:38.821Z,1.02
2022-10-19T10:52:13.909Z,0.93
2022-10-19T10:55:16.198Z,0.75
2022-10-19T10:57:53.489Z,0.50
2022-10-19T11:00:28.104Z,0.60
2022-10-19T11:03:03.539Z,0.50
2022-10-19T11:05:38.086Z,0.30
2022-10-19T11:08:42.581Z,0.40
2022-10-19T11:11:17.935Z,0.30
2022-10-19T11:13:58.417Z,0.50
2022-10-19T11:16:43.805Z,0.10
2022-10-19T11:19:33.780Z,0.20
2022-10-19T11:22:06.981Z,0.20
2022-10-19T11:24:59.877Z,0.20
2022-10-19T11:28:05.377Z,0.10
2022-10-19T11:30:50.536Z,0.40
2022-10-19T11:33:20.922Z,0.10
2022-10-19T11:38:55.646Z,0.10
2022-10-19T11:41:37.728Z,0.73
2022-10-19T11:44:17.125Z,0.28
2022-10-19T11:47:12.068Z,0.10
2022-10-19T11:49:42.353Z,0.20
2022-10-19T11:55:13.462Z,0.30
2022-10-19T12:00:39.791Z,0.30
2022-10-19T12:03:46.712Z,0.22
2022-10-19T12:06:39.771Z,0.38
2022-10-19T12:09:24.965Z,0.22
2022-10-19T12:11:58.009Z,0.32
2022-10-19T12:14:33.620Z,0.47
2022-10-19T12:17:16.552Z,0.50
2022-10-19T12:19:51.148Z,0.32
2022-10-19T12:22:31.873Z,0.82
2022-10-19T12:25:03.694Z,0.40
2022-10-19T12:27:41.980Z,0.30
2022-10-19T12:30:22.931Z,0.28
2022-10-19T12:33:13.904Z,0.30
2022-10-19T12:35:54.279Z,0.30
2022-10-19T12:38:42.305Z,0.30
2022-10-19T12:41:28.328Z,0.20
2022-10-19T12:46:51.299Z,0.43
2022-10-19T12:49:59.700Z,0.50
2022-10-19T12:53:02.083Z,1.00
2022-10-19T12:55:36.252Z,0.63
2022-10-19T12:58:24.398Z,0.65
2022-10-19T13:01:02.860Z,0.55
2022-10-19T13:03:38.864Z,0.45
2022-10-19T13:06:33.908Z,0.50
2022-10-19T13:11:37.522Z,0.50
2022-10-19T13:14:16.775Z,0.60
2022-10-19T13:17:05.912Z,0.30
2022-10-19T13:19:36.970Z,0.47
2022-10-19T13:22:27.515Z,0.50
2022-10-19T13:25:20.073Z,1.35
2022-10-19T13:27:57.268Z,0.70
2022-10-19T13:30:45.671Z,0.30
2022-10-19T13:33:30.811Z,0.50
2022-10-19T13:36:01.025Z,0.50
2022-10-19T13:38:49.922Z,0.60
2022-10-19T13:41:45.640Z,1.00
2022-10-19T13:44:17.496Z,1.08
2022-10-19T13:47:03.025Z,0.60
2022-10-19T13:50:09.571Z,0.50
2022-10-19T13:52:48.843Z,0.50
2022-10-19T13:55:47.147Z,0.50
2022-10-19T13:58:23.773Z,0.57
2022-10-19T14:01:28.803Z,1.15
2022-10-19T14:04:22.625Z,0.93
2022-10-19T14:07:02.909Z,1.70
2022-10-19T14:09:42.412Z,1.02
2022-10-19T14:12:31.147Z,0.90
2022-10-19T14:17:43.576Z,0.70
2022-10-19T14:20:33.570Z,0.47
2022-10-19T14:23:26.733Z,0.60
2022-10-19T14:26:08.061Z,0.90
2022-10-19T14:28:38.700Z,0.95
2022-10-19T14:31:20.146Z,0.82
2022-10-19T14:33:55.539Z,0.38
2022-10-19T14:36:30.770Z,0.60
2022-10-19T14:39:01.192Z,2.00
2022-10-19T14:41:38.607Z,0.60
2022-10-19T14:44:42.563Z,0.60
2022-10-19T14:47:20.801Z,0.60
2022-10-19T14:49:52.211Z,0.63
2022-10-19T14:52:32.291Z,0.43
2022-10-19T14:55:14.094Z,0.60
2022-10-19T14:57:50.683Z,0.40
2022-10-19T15:00:23.713Z,0.70
2022-10-19T15:03:06.977Z,0.60
2022-10-19T15:05:43.450Z,0.40
2022-10-19T15:08:24.814Z,0.70
2022-10-19T15:10:55.267Z,0.45
2022-10-19T15:13:28.544Z,0.47
2022-10-19T15:15:59.059Z,0.60
2022-10-19T15:18:48.852Z,0.50
2022-10-19T15:21:23.046Z,0.50
2022-10-19T15:23:54.815Z,0.73
2022-10-19T15:26:27.962Z,0.60
2022-10-19T15:29:21.323Z,0.30
2022-10-19T15:31:53.889Z,0.40
2022-10-19T15:34:28.913Z,0.50
2022-10-19T15:37:05.666Z,0.40
2022-10-19T15:39:42.066Z,0.40
2022-10-19T15:42:34.900Z,0.35
2022-10-19T15:45:26.790Z,0.90
2022-10-19T15:48:12.037Z,0.60
2022-10-19T15:50:45.591Z,0.25
2022-10-19T15:53:16.687Z,0.40
2022-10-19T15:55:47.450Z,0.50
2022-10-19T15:58:18.821Z,0.60
2022-10-19T16:00:49.302Z,0.52
2022-10-19T16:03:19.666Z,0.70
2022-10-19T16:05:51.238Z,0.50
2022-10-19T16:08:21.722Z,0.60
2022-10-19T16:10:51.848Z,0.70
2022-10-19T16:13:22.291Z,0.30
2022-10-19T16:16:01.479Z,0.60
2022-10-19T16:18:41.019Z,0.40
2022-10-19T16:23:42.058Z,0.50
2022-10-19T16:26:15.879Z,0.60
2022-10-19T16:28:46.757Z,0.60
2022-10-19T16:31:18.151Z,0.40
2022-10-19T16:33:48.635Z,0.50
2022-10-19T16:36:21.909Z,0.50
2022-10-19T16:38:52.143Z,0.50
2022-10-19T16:41:22.739Z,0.63
2022-10-19T16:43:56.892Z,0.43
2022-10-19T16:46:27.635Z,0.50
2022-10-19T16:48:57.619Z,0.50
2022-10-19T16:54:00.698Z,0.70
2022-10-19T16:56:31.919Z,0.90
2022-10-19T16:59:08.351Z,0.60
2022-10-19T17:01:38.579Z,0.30
2022-10-19T17:04:09.112Z,0.25
2022-10-19T17:06:39.620Z,0.40
2022-10-19T17:12:00.409Z,0.22
2022-10-19T17:14:30.736Z,0.40
2022-10-19T17:17:01.067Z,0.50
2022-10-19T17:19:31.588Z,0.60
2022-10-19T17:22:03.095Z,0.40
2022-10-19T17:24:33.721Z,0.30
2022-10-19T17:27:04.697Z,0.25
2022-10-19T17:29:35.085Z,0.30
2022-10-19T17:32:05.496Z,0.35
2022-10-19T17:34:35.854Z,0.20
2022-10-19T17:37:06.165Z,0.32
2022-10-19T17:39:36.328Z,0.40
2022-10-19T17:42:06.690Z,0.55
2022-10-19T17:44:37.346Z,0.70
2022-10-19T17:47:07.532Z,0.30
2022-10-19T17:49:38.834Z,0.68
2022-10-19T17:52:09.093Z,0.30
2022-10-19T17:57:29.054Z,0.40
2022-10-19T17:59:59.698Z,0.40
2022-10-19T18:02:30.184Z,0.32
2022-10-19T18:05:00.610Z,0.50
2022-10-19T18:07:30.553Z,0.43
2022-10-19T18:10:00.540Z,0.43
2022-10-19T18:12:31.333Z,0.40
2022-10-19T18:15:01.551Z,0.22
2022-10-19T18:17:31.757Z,0.40
2022-10-19T18:22:31.423Z,0.22
2022-10-19T18:25:01.817Z,0.20
2022-10-19T18:27:32.169Z,0.35
2022-10-19T18:30:02.809Z,0.65
2022-10-19T18:32:33.506Z,0.38
2022-10-19T18:35:04.266Z,0.22
2022-10-19T18:37:34.547Z,0.30
2022-10-19T18:40:05.094Z,0.50
2022-10-19T18:42:35.675Z,0.20
2022-10-19T18:45:06.436Z,0.40
2022-10-19T18:47:36.744Z,0.32
2022-10-19T18:50:07.373Z,0.70
2022-10-19T18:52:39.220Z,0.47
2022-10-19T18:55:10.152Z,0.35
2022-10-19T18:57:40.610Z,0.40
2022-10-19T19:00:12.010Z,0.25
2022-10-19T19:02:46.852Z,0.43
2022-10-19T19:05:17.539Z,0.40
2022-10-19T19:07:47.772Z,0.57
2022-10-19T19:10:19.513Z,0.70
2022-10-19T19:12:52.652Z,0.40
2022-10-19T19:15:22.956Z,0.52
2022-10-19T19:17:56.430Z,0.45
2022-10-19T19:20:26.745Z,0.40
2022-10-19T19:22:57.121Z,0.43
2022-10-19T19:25:27.432Z,0.28
2022-10-19T19:27:57.587Z,0.30
2022-10-19T19:30:29.320Z,0.40
2022-10-19T19:32:59.600Z,0.30
2022-10-19T19:35:29.865Z,0.30
2022-10-19T19:38:00.103Z,0.32
2022-10-19T19:40:30.488Z,0.40
2022-10-19T19:43:00.730Z,0.40
2022-10-19T19:45:31.158Z,0.30
2022-10-19T19:48:01.533Z,0.22
2022-10-19T19:50:33.382Z,0.30
2022-10-19T19:53:03.998Z,0.35
2022-10-19T19:55:38.965Z,0.30
2022-10-19T19:58:09.506Z,0.50
2022-10-19T20:00:41.563Z,0.40
2022-10-19T20:03:14.979Z,0.40
2022-10-19T20:05:45.351Z,0.30
2022-10-19T20:08:15.691Z,0.57
2022-10-19T20:10:46.059Z,0.45
2022-10-19T20:13:16.294Z,0.30
2022-10-19T20:18:16.089Z,0.40
2022-10-19T20:20:46.473Z,0.43
2022-10-19T20:23:16.823Z,0.30
2022-10-19T20:25:47.108Z,0.50
2022-10-19T20:28:21.380Z,0.70
2022-10-19T20:31:05.320Z,0.40
2022-10-19T20:33:37.231Z,0.50
2022-10-19T20:36:14.832Z,0.50
2022-10-19T20:38:50.427Z,0.13
2022-10-19T20:41:22.550Z,0.22
2022-10-19T20:43:53.429Z,0.40
2022-10-19T20:46:26.483Z,0.20
2022-10-19T20:49:01.057Z,0.17
2022-10-19T20:51:38.097Z,0.43
2022-10-19T20:54:16.345Z,0.20
2022-10-19T20:56:46.774Z,0.22
2022-10-19T20:59:22.758Z,0.43
2022-10-19T21:01:56.579Z,0.35
2022-10-19T21:04:27.572Z,0.20
2022-10-19T21:06:58.536Z,0.30
2022-10-19T21:09:28.830Z,0.47
2022-10-19T21:11:59.175Z,0.50
2022-10-19T21:14:30.813Z,0.25
2022-10-19T21:17:02.472Z,0.40
2022-10-19T21:19:32.742Z,0.40
2022-10-19T21:22:04.012Z,0.47
2022-10-19T21:24:39.005Z,0.57
2022-10-19T21:27:11.009Z,0.30
2022-10-19T21:29:41.371Z,0.50
2022-10-19T21:32:11.699Z,0.70
2022-10-19T21:34:41.839Z,0.40
2022-10-19T21:37:11.803Z,0.40
2022-10-19T21:39:41.664Z,0.32
2022-10-19T21:42:11.693Z,0.50
2022-10-19T21:44:41.655Z,0.65
2022-10-19T21:47:11.815Z,0.63
2022-10-19T21:52:15.827Z,0.22
2022-10-19T21:54:46.210Z,0.47
2022-10-19T21:59:46.043Z,0.60
2022-10-19T22:04:46.506Z,0.30
2022-10-19T22:07:16.644Z,0.32
2022-10-19T22:12:16.652Z,0.30
2022-10-19T22:14:47.303Z,0.30
2022-10-19T22:17:17.643Z,0.30
2022-10-19T22:19:47.891Z,0.60
2022-10-19T22:24:47.665Z,0.35
2022-10-19T22:27:17.834Z,0.65
2022-10-19T22:29:47.913Z,0.40
2022-10-19T22:32:18.259Z,0.50
2022-10-19T22:34:48.541Z,0.40
2022-10-19T22:39:48.258Z,0.50
2022-10-19T22:42:18.473Z,0.60
2022-10-19T22:47:18.302Z,1.15
2022-10-19T22:52:18.197Z,0.40
2022-10-19T22:54:48.417Z,0.77
2022-10-19T22:59:49.312Z,0.50
2022-10-19T23:02:19.914Z,0.25
2022-10-19T23:04:50.099Z,0.45
2022-10-19T23:07:20.338Z,0.20
2022-10-19T23:12:20.147Z,0.70
2022-10-19T23:17:20.803Z,0.60
2022-10-19T23:19:51.085Z,0.43
2022-10-19T23:22:21.427Z,0.55
2022-10-19T23:27:22.334Z,0.38
2022-10-19T23:29:52.572Z,0.50
2022-10-19T23:32:22.711Z,0.65
2022-10-19T23:34:52.704Z,0.50
2022-10-19T23:37:22.764Z,0.50
2022-10-19T23:39:52.711Z,0.30
2022-10-19T23:42:22.734Z,0.30
2022-10-19T23:44:52.777Z,0.50
2022-10-19T23:47:24.628Z,0.40
2022-10-19T23:49:54.823Z,0.50
2022-10-19T23:52:24.982Z,0.40
2022-10-19T23:54:55.173Z,0.80
2022-10-19T23:57:25.347Z,0.55
2022-10-19T23:59:55.460Z,0.60
